sensor_id;sensor_type;location;lat;lon;timestamp;P1;durP1;ratioP1;P2;durP2;ratioP2
76123;SDS011;65173;48.066;20.976;2022-12-29T00:00:52;42.90;;;20.43;;
76123;SDS011;65173;48.066;20.976;2022-12-29T00:03:55;38.05;;;18.25;;
76123;SDS011;65173;48.066;20.976;2022-12-29T00:06:58;36.63;;;20.35;;
76123;SDS011;65173;48.066;20.976;2022-12-29T00:10:01;39.00;;;20.63;;
76123;SDS011;65173;48.066;20.976;2022-12-29T00:13:03;37.67;;;19.20;;
76123;SDS011;65173;48.066;20.976;2022-12-29T00:16:24;33.60;;;17.48;;
76123;SDS011;65173;48.066;20.976;2022-12-29T00:19:27;44.25;;;20.63;;
76123;SDS011;65173;48.066;20.976;2022-12-29T00:22:49;41.13;;;18.05;;
76123;SDS011;65173;48.066;20.976;2022-12-29T00:26:12;27.25;;;15.82;;
76123;SDS011;65173;48.066;20.976;2022-12-29T00:29:40;34.15;;;16.92;;
76123;SDS011;65173;48.066;20.976;2022-12-29T00:33:15;38.33;;;16.43;;
76123;SDS011;65173;48.066;20.976;2022-12-29T00:36:39;37.58;;;17.20;;
76123;SDS011;65173;48.066;20.976;2022-12-29T00:39:44;35.80;;;17.88;;
76123;SDS011;65173;48.066;20.976;2022-12-29T00:43:06;30.37;;;14.27;;
76123;SDS011;65173;48.066;20.976;2022-12-29T00:46:27;30.80;;;14.73;;
76123;SDS011;65173;48.066;20.976;2022-12-29T00:49:30;30.88;;;14.43;;
76123;SDS011;65173;48.066;20.976;2022-12-29T00:52:33;36.42;;;18.00;;
76123;SDS011;65173;48.066;20.976;2022-12-29T00:55:36;50.40;;;21.50;;
76123;SDS011;65173;48.066;20.976;2022-12-29T00:58:40;40.60;;;19.45;;
76123;SDS011;65173;48.066;20.976;2022-12-29T01:01:43;29.00;;;14.38;;
76123;SDS011;65173;48.066;20.976;2022-12-29T01:04:46;29.03;;;14.10;;
76123;SDS011;65173;48.066;20.976;2022-12-29T01:07:50;33.20;;;16.45;;
76123;SDS011;65173;48.066;20.976;2022-12-29T01:11:04;25.45;;;12.70;;
76123;SDS011;65173;48.066;20.976;2022-12-29T01:14:08;30.17;;;13.50;;
76123;SDS011;65173;48.066;20.976;2022-12-29T01:17:11;21.98;;;11.68;;
76123;SDS011;65173;48.066;20.976;2022-12-29T01:20:14;33.47;;;15.00;;
76123;SDS011;65173;48.066;20.976;2022-12-29T01:23:17;25.40;;;14.43;;
76123;SDS011;65173;48.066;20.976;2022-12-29T01:26:20;24.30;;;11.85;;
76123;SDS011;65173;48.066;20.976;2022-12-29T01:29:22;15.73;;;9.13;;
76123;SDS011;65173;48.066;20.976;2022-12-29T01:32:25;18.20;;;7.82;;
76123;SDS011;65173;48.066;20.976;2022-12-29T01:35:28;23.77;;;13.13;;
76123;SDS011;65173;48.066;20.976;2022-12-29T01:38:32;27.88;;;11.43;;
76123;SDS011;65173;48.066;20.976;2022-12-29T01:41:35;21.38;;;11.65;;
76123;SDS011;65173;48.066;20.976;2022-12-29T01:47:53;24.25;;;12.73;;
76123;SDS011;65173;48.066;20.976;2022-12-29T01:50:59;27.50;;;13.85;;
76123;SDS011;65173;48.066;20.976;2022-12-29T01:54:02;24.90;;;12.52;;
76123;SDS011;65173;48.066;20.976;2022-12-29T01:57:14;23.95;;;11.20;;
76123;SDS011;65173;48.066;20.976;2022-12-29T02:00:19;25.67;;;12.68;;
76123;SDS011;65173;48.066;20.976;2022-12-29T02:03:22;25.27;;;14.23;;
76123;SDS011;65173;48.066;20.976;2022-12-29T02:06:41;26.77;;;13.27;;
76123;SDS011;65173;48.066;20.976;2022-12-29T02:09:49;23.52;;;12.90;;
76123;SDS011;65173;48.066;20.976;2022-12-29T02:12:55;25.83;;;11.68;;
76123;SDS011;65173;48.066;20.976;2022-12-29T02:16:05;30.87;;;14.20;;
76123;SDS011;65173;48.066;20.976;2022-12-29T02:23:21;22.70;;;11.57;;
76123;SDS011;65173;48.066;20.976;2022-12-29T02:40:33;22.97;;;11.97;;
76123;SDS011;65173;48.066;20.976;2022-12-29T02:43:54;25.35;;;13.32;;
76123;SDS011;65173;48.066;20.976;2022-12-29T02:47:09;29.60;;;14.50;;
76123;SDS011;65173;48.066;20.976;2022-12-29T02:50:23;27.77;;;13.30;;
76123;SDS011;65173;48.066;20.976;2022-12-29T02:53:33;26.25;;;13.05;;
76123;SDS011;65173;48.066;20.976;2022-12-29T02:56:57;27.23;;;13.45;;
76123;SDS011;65173;48.066;20.976;2022-12-29T03:00:07;29.85;;;14.15;;
76123;SDS011;65173;48.066;20.976;2022-12-29T03:03:20;28.60;;;13.18;;
76123;SDS011;65173;48.066;20.976;2022-12-29T03:16:44;28.02;;;12.55;;
76123;SDS011;65173;48.066;20.976;2022-12-29T03:19:50;34.40;;;16.33;;
76123;SDS011;65173;48.066;20.976;2022-12-29T03:22:56;43.53;;;19.10;;
76123;SDS011;65173;48.066;20.976;2022-12-29T03:26:10;64.97;;;28.77;;
76123;SDS011;65173;48.066;20.976;2022-12-29T03:29:16;25.05;;;12.05;;
76123;SDS011;65173;48.066;20.976;2022-12-29T03:32:23;29.08;;;12.50;;
76123;SDS011;65173;48.066;20.976;2022-12-29T03:35:32;19.25;;;11.05;;
76123;SDS011;65173;48.066;20.976;2022-12-29T03:38:50;25.45;;;12.85;;
76123;SDS011;65173;48.066;20.976;2022-12-29T03:42:00;28.45;;;14.77;;
76123;SDS011;65173;48.066;20.976;2022-12-29T03:45:07;28.13;;;13.87;;
76123;SDS011;65173;48.066;20.976;2022-12-29T03:48:12;32.85;;;14.80;;
76123;SDS011;65173;48.066;20.976;2022-12-29T03:51:15;23.52;;;12.43;;
76123;SDS011;65173;48.066;20.976;2022-12-29T03:54:19;28.10;;;14.40;;
76123;SDS011;65173;48.066;20.976;2022-12-29T03:57:22;29.85;;;14.45;;
76123;SDS011;65173;48.066;20.976;2022-12-29T04:00:33;27.00;;;13.43;;
76123;SDS011;65173;48.066;20.976;2022-12-29T04:03:36;28.40;;;13.30;;
76123;SDS011;65173;48.066;20.976;2022-12-29T04:06:40;27.27;;;13.25;;
76123;SDS011;65173;48.066;20.976;2022-12-29T04:09:43;23.90;;;13.65;;
76123;SDS011;65173;48.066;20.976;2022-12-29T04:12:52;28.38;;;13.50;;
76123;SDS011;65173;48.066;20.976;2022-12-29T04:15:54;25.27;;;12.27;;
76123;SDS011;65173;48.066;20.976;2022-12-29T04:18:57;30.25;;;15.20;;
76123;SDS011;65173;48.066;20.976;2022-12-29T04:22:00;26.85;;;13.23;;
76123;SDS011;65173;48.066;20.976;2022-12-29T04:25:04;31.03;;;14.30;;
76123;SDS011;65173;48.066;20.976;2022-12-29T04:28:07;28.05;;;13.73;;
76123;SDS011;65173;48.066;20.976;2022-12-29T04:31:49;25.83;;;13.05;;
76123;SDS011;65173;48.066;20.976;2022-12-29T04:34:53;29.27;;;14.63;;
76123;SDS011;65173;48.066;20.976;2022-12-29T04:37:56;29.90;;;13.88;;
76123;SDS011;65173;48.066;20.976;2022-12-29T04:41:00;27.67;;;14.90;;
76123;SDS011;65173;48.066;20.976;2022-12-29T04:44:04;32.83;;;14.68;;
76123;SDS011;65173;48.066;20.976;2022-12-29T04:47:44;28.60;;;13.83;;
76123;SDS011;65173;48.066;20.976;2022-12-29T04:51:16;23.52;;;12.38;;
76123;SDS011;65173;48.066;20.976;2022-12-29T04:54:19;25.08;;;13.43;;
76123;SDS011;65173;48.066;20.976;2022-12-29T04:57:29;27.60;;;13.33;;
76123;SDS011;65173;48.066;20.976;2022-12-29T05:00:34;30.63;;;15.13;;
76123;SDS011;65173;48.066;20.976;2022-12-29T05:03:37;30.33;;;15.02;;
76123;SDS011;65173;48.066;20.976;2022-12-29T05:06:40;29.70;;;14.85;;
76123;SDS011;65173;48.066;20.976;2022-12-29T05:09:44;27.58;;;14.20;;
76123;SDS011;65173;48.066;20.976;2022-12-29T05:12:46;31.17;;;14.57;;
76123;SDS011;65173;48.066;20.976;2022-12-29T05:15:53;32.63;;;15.68;;
76123;SDS011;65173;48.066;20.976;2022-12-29T05:18:57;30.03;;;15.07;;
76123;SDS011;65173;48.066;20.976;2022-12-29T05:22:00;30.60;;;13.80;;
76123;SDS011;65173;48.066;20.976;2022-12-29T05:25:04;28.45;;;14.10;;
76123;SDS011;65173;48.066;20.976;2022-12-29T05:28:15;35.63;;;14.57;;
76123;SDS011;65173;48.066;20.976;2022-12-29T05:31:32;29.85;;;14.90;;
76123;SDS011;65173;48.066;20.976;2022-12-29T05:34:35;35.13;;;16.70;;
76123;SDS011;65173;48.066;20.976;2022-12-29T05:37:38;32.60;;;14.52;;
76123;SDS011;65173;48.066;20.976;2022-12-29T05:40:42;31.20;;;15.57;;
76123;SDS011;65173;48.066;20.976;2022-12-29T05:44:17;37.58;;;17.38;;
76123;SDS011;65173;48.066;20.976;2022-12-29T05:47:27;35.65;;;18.27;;
76123;SDS011;65173;48.066;20.976;2022-12-29T05:50:59;40.10;;;17.17;;
76123;SDS011;65173;48.066;20.976;2022-12-29T05:54:11;36.42;;;17.67;;
76123;SDS011;65173;48.066;20.976;2022-12-29T05:57:15;48.30;;;21.10;;
76123;SDS011;65173;48.066;20.976;2022-12-29T06:00:21;42.23;;;20.10;;
76123;SDS011;65173;48.066;20.976;2022-12-29T06:03:24;40.58;;;18.33;;
76123;SDS011;65173;48.066;20.976;2022-12-29T06:06:28;34.58;;;16.10;;
76123;SDS011;65173;48.066;20.976;2022-12-29T06:09:32;38.90;;;19.27;;
76123;SDS011;65173;48.066;20.976;2022-12-29T06:12:36;40.10;;;19.83;;
76123;SDS011;65173;48.066;20.976;2022-12-29T06:15:39;50.97;;;24.08;;
76123;SDS011;65173;48.066;20.976;2022-12-29T06:18:43;69.40;;;31.15;;
76123;SDS011;65173;48.066;20.976;2022-12-29T06:21:45;108.10;;;44.67;;
76123;SDS011;65173;48.066;20.976;2022-12-29T06:24:48;56.13;;;29.27;;
76123;SDS011;65173;48.066;20.976;2022-12-29T06:27:51;46.40;;;24.27;;
76123;SDS011;65173;48.066;20.976;2022-12-29T06:30:54;38.63;;;19.80;;
76123;SDS011;65173;48.066;20.976;2022-12-29T06:33:57;39.50;;;18.00;;
76123;SDS011;65173;48.066;20.976;2022-12-29T06:37:07;42.22;;;21.30;;
76123;SDS011;65173;48.066;20.976;2022-12-29T06:40:10;37.20;;;18.63;;
76123;SDS011;65173;48.066;20.976;2022-12-29T06:43:29;33.55;;;17.50;;
76123;SDS011;65173;48.066;20.976;2022-12-29T06:46:39;25.50;;;12.68;;
76123;SDS011;65173;48.066;20.976;2022-12-29T06:49:42;38.15;;;18.13;;
76123;SDS011;65173;48.066;20.976;2022-12-29T06:52:44;40.07;;;17.60;;
76123;SDS011;65173;48.066;20.976;2022-12-29T06:55:47;33.40;;;14.73;;
76123;SDS011;65173;48.066;20.976;2022-12-29T06:58:50;33.35;;;16.70;;
76123;SDS011;65173;48.066;20.976;2022-12-29T07:01:52;24.93;;;14.53;;
76123;SDS011;65173;48.066;20.976;2022-12-29T07:04:56;30.25;;;14.20;;
76123;SDS011;65173;48.066;20.976;2022-12-29T07:07:58;26.35;;;13.73;;
76123;SDS011;65173;48.066;20.976;2022-12-29T07:11:01;17.98;;;7.93;;
76123;SDS011;65173;48.066;20.976;2022-12-29T07:14:05;91.38;;;36.28;;
76123;SDS011;65173;48.066;20.976;2022-12-29T07:17:08;107.78;;;36.65;;
76123;SDS011;65173;48.066;20.976;2022-12-29T07:20:11;200.45;;;70.40;;
76123;SDS011;65173;48.066;20.976;2022-12-29T07:23:13;222.83;;;79.27;;
76123;SDS011;65173;48.066;20.976;2022-12-29T07:26:16;176.25;;;72.97;;
76123;SDS011;65173;48.066;20.976;2022-12-29T07:29:20;208.32;;;84.75;;
76123;SDS011;65173;48.066;20.976;2022-12-29T07:32:23;172.97;;;70.63;;
76123;SDS011;65173;48.066;20.976;2022-12-29T07:35:25;98.28;;;47.97;;
76123;SDS011;65173;48.066;20.976;2022-12-29T07:38:28;73.10;;;34.28;;
76123;SDS011;65173;48.066;20.976;2022-12-29T07:41:30;63.83;;;29.58;;
76123;SDS011;65173;48.066;20.976;2022-12-29T07:44:37;70.45;;;30.02;;
76123;SDS011;65173;48.066;20.976;2022-12-29T07:47:58;69.15;;;30.25;;
76123;SDS011;65173;48.066;20.976;2022-12-29T07:51:00;61.40;;;25.92;;
76123;SDS011;65173;48.066;20.976;2022-12-29T07:54:03;55.10;;;25.27;;
76123;SDS011;65173;48.066;20.976;2022-12-29T07:57:06;83.25;;;34.13;;
76123;SDS011;65173;48.066;20.976;2022-12-29T08:00:09;87.10;;;36.67;;
76123;SDS011;65173;48.066;20.976;2022-12-29T08:03:14;79.57;;;34.87;;
76123;SDS011;65173;48.066;20.976;2022-12-29T08:06:17;55.22;;;26.15;;
76123;SDS011;65173;48.066;20.976;2022-12-29T08:09:20;43.22;;;21.65;;
76123;SDS011;65173;48.066;20.976;2022-12-29T08:12:26;37.97;;;19.33;;
76123;SDS011;65173;48.066;20.976;2022-12-29T08:15:29;45.47;;;21.00;;
76123;SDS011;65173;48.066;20.976;2022-12-29T08:18:33;37.53;;;19.75;;
76123;SDS011;65173;48.066;20.976;2022-12-29T08:21:36;42.08;;;19.60;;
76123;SDS011;65173;48.066;20.976;2022-12-29T08:24:39;45.80;;;20.90;;
76123;SDS011;65173;48.066;20.976;2022-12-29T08:27:42;30.00;;;17.85;;
76123;SDS011;65173;48.066;20.976;2022-12-29T08:30:44;48.30;;;24.23;;
76123;SDS011;65173;48.066;20.976;2022-12-29T08:33:47;47.30;;;25.80;;
76123;SDS011;65173;48.066;20.976;2022-12-29T08:36:50;38.60;;;21.35;;
76123;SDS011;65173;48.066;20.976;2022-12-29T08:39:52;21.90;;;12.48;;
76123;SDS011;65173;48.066;20.976;2022-12-29T08:42:55;44.05;;;24.48;;
76123;SDS011;65173;48.066;20.976;2022-12-29T08:45:58;41.10;;;21.92;;
76123;SDS011;65173;48.066;20.976;2022-12-29T08:49:01;34.88;;;19.40;;
76123;SDS011;65173;48.066;20.976;2022-12-29T08:52:03;34.78;;;18.20;;
76123;SDS011;65173;48.066;20.976;2022-12-29T08:55:06;20.20;;;11.47;;
76123;SDS011;65173;48.066;20.976;2022-12-29T08:58:09;27.52;;;14.55;;
76123;SDS011;65173;48.066;20.976;2022-12-29T09:01:17;17.92;;;11.02;;
76123;SDS011;65173;48.066;20.976;2022-12-29T09:04:20;19.23;;;11.63;;
76123;SDS011;65173;48.066;20.976;2022-12-29T09:07:23;18.27;;;9.80;;
76123;SDS011;65173;48.066;20.976;2022-12-29T09:10:26;22.17;;;13.10;;
76123;SDS011;65173;48.066;20.976;2022-12-29T09:13:28;18.92;;;11.73;;
76123;SDS011;65173;48.066;20.976;2022-12-29T09:16:32;18.25;;;11.45;;
76123;SDS011;65173;48.066;20.976;2022-12-29T09:19:35;27.02;;;13.85;;
76123;SDS011;65173;48.066;20.976;2022-12-29T09:22:37;25.17;;;12.75;;
76123;SDS011;65173;48.066;20.976;2022-12-29T09:25:40;33.27;;;16.53;;
76123;SDS011;65173;48.066;20.976;2022-12-29T09:28:45;31.58;;;17.40;;
76123;SDS011;65173;48.066;20.976;2022-12-29T09:31:49;29.42;;;15.23;;
76123;SDS011;65173;48.066;20.976;2022-12-29T09:34:52;24.50;;;14.90;;
76123;SDS011;65173;48.066;20.976;2022-12-29T09:37:54;24.90;;;12.02;;
76123;SDS011;65173;48.066;20.976;2022-12-29T09:41:08;24.77;;;12.88;;
76123;SDS011;65173;48.066;20.976;2022-12-29T09:47:58;24.30;;;14.80;;
76123;SDS011;65173;48.066;20.976;2022-12-29T09:51:08;24.63;;;14.27;;
76123;SDS011;65173;48.066;20.976;2022-12-29T09:57:43;20.30;;;10.63;;
76123;SDS011;65173;48.066;20.976;2022-12-29T10:00:54;19.85;;;11.10;;
76123;SDS011;65173;48.066;20.976;2022-12-29T10:04:10;35.72;;;14.20;;
76123;SDS011;65173;48.066;20.976;2022-12-29T10:11:09;34.17;;;13.70;;
76123;SDS011;65173;48.066;20.976;2022-12-29T10:14:29;24.20;;;13.02;;
76123;SDS011;65173;48.066;20.976;2022-12-29T10:18:18;23.65;;;12.68;;
76123;SDS011;65173;48.066;20.976;2022-12-29T10:25:22;17.75;;;10.63;;
76123;SDS011;65173;48.066;20.976;2022-12-29T10:31:48;17.00;;;10.57;;
76123;SDS011;65173;48.066;20.976;2022-12-29T10:34:58;39.33;;;19.80;;
76123;SDS011;65173;48.066;20.976;2022-12-29T10:42:13;21.37;;;10.67;;
76123;SDS011;65173;48.066;20.976;2022-12-29T10:45:21;19.73;;;11.77;;
76123;SDS011;65173;48.066;20.976;2022-12-29T10:48:29;32.97;;;15.07;;
76123;SDS011;65173;48.066;20.976;2022-12-29T10:51:35;20.95;;;11.65;;
76123;SDS011;65173;48.066;20.976;2022-12-29T10:54:44;30.63;;;13.88;;
76123;SDS011;65173;48.066;20.976;2022-12-29T10:57:51;20.05;;;12.25;;
76123;SDS011;65173;48.066;20.976;2022-12-29T11:00:54;14.68;;;7.40;;
76123;SDS011;65173;48.066;20.976;2022-12-29T11:04:02;24.40;;;11.67;;
76123;SDS011;65173;48.066;20.976;2022-12-29T11:07:11;22.92;;;12.93;;
76123;SDS011;65173;48.066;20.976;2022-12-29T11:10:28;20.05;;;12.10;;
76123;SDS011;65173;48.066;20.976;2022-12-29T11:13:46;21.33;;;10.90;;
76123;SDS011;65173;48.066;20.976;2022-12-29T11:16:59;25.58;;;12.25;;
76123;SDS011;65173;48.066;20.976;2022-12-29T11:20:26;18.30;;;10.23;;
76123;SDS011;65173;48.066;20.976;2022-12-29T11:23:38;20.02;;;11.32;;
76123;SDS011;65173;48.066;20.976;2022-12-29T11:26:43;27.35;;;14.23;;
76123;SDS011;65173;48.066;20.976;2022-12-29T11:29:46;31.08;;;14.68;;
76123;SDS011;65173;48.066;20.976;2022-12-29T11:32:52;32.60;;;19.05;;
76123;SDS011;65173;48.066;20.976;2022-12-29T11:36:01;27.90;;;16.20;;
76123;SDS011;65173;48.066;20.976;2022-12-29T11:39:06;28.45;;;16.70;;
76123;SDS011;65173;48.066;20.976;2022-12-29T11:42:40;33.53;;;18.30;;
76123;SDS011;65173;48.066;20.976;2022-12-29T11:45:51;23.40;;;13.67;;
76123;SDS011;65173;48.066;20.976;2022-12-29T11:48:56;29.08;;;14.00;;
76123;SDS011;65173;48.066;20.976;2022-12-29T11:52:01;46.03;;;23.63;;
76123;SDS011;65173;48.066;20.976;2022-12-29T11:55:04;65.97;;;28.90;;
76123;SDS011;65173;48.066;20.976;2022-12-29T11:58:15;39.58;;;19.23;;
76123;SDS011;65173;48.066;20.976;2022-12-29T12:04:51;46.47;;;28.05;;
76123;SDS011;65173;48.066;20.976;2022-12-29T12:08:07;30.50;;;16.67;;
76123;SDS011;65173;48.066;20.976;2022-12-29T12:11:34;35.17;;;18.13;;
76123;SDS011;65173;48.066;20.976;2022-12-29T12:14:55;45.25;;;20.38;;
76123;SDS011;65173;48.066;20.976;2022-12-29T12:18:37;34.40;;;18.83;;
76123;SDS011;65173;48.066;20.976;2022-12-29T12:21:46;22.95;;;11.57;;
76123;SDS011;65173;48.066;20.976;2022-12-29T12:24:59;37.65;;;20.15;;
76123;SDS011;65173;48.066;20.976;2022-12-29T12:28:33;36.30;;;18.52;;
76123;SDS011;65173;48.066;20.976;2022-12-29T12:31:54;36.58;;;19.27;;
76123;SDS011;65173;48.066;20.976;2022-12-29T12:35:01;32.42;;;17.75;;
76123;SDS011;65173;48.066;20.976;2022-12-29T12:51:34;39.33;;;19.27;;
76123;SDS011;65173;48.066;20.976;2022-12-29T12:55:06;44.90;;;28.23;;
76123;SDS011;65173;48.066;20.976;2022-12-29T13:05:07;30.73;;;16.08;;
76123;SDS011;65173;48.066;20.976;2022-12-29T13:21:51;30.83;;;16.13;;
76123;SDS011;65173;48.066;20.976;2022-12-29T13:28:32;26.98;;;17.13;;
76123;SDS011;65173;48.066;20.976;2022-12-29T13:31:49;43.25;;;21.40;;
76123;SDS011;65173;48.066;20.976;2022-12-29T13:35:34;39.47;;;23.02;;
76123;SDS011;65173;48.066;20.976;2022-12-29T13:38:43;36.25;;;20.38;;
76123;SDS011;65173;48.066;20.976;2022-12-29T13:41:54;34.75;;;18.20;;
76123;SDS011;65173;48.066;20.976;2022-12-29T13:45:02;32.05;;;20.13;;
76123;SDS011;65173;48.066;20.976;2022-12-29T13:48:15;38.30;;;20.17;;
76123;SDS011;65173;48.066;20.976;2022-12-29T13:51:22;42.85;;;25.85;;
76123;SDS011;65173;48.066;20.976;2022-12-29T14:01:21;59.13;;;33.05;;
76123;SDS011;65173;48.066;20.976;2022-12-29T14:04:32;54.10;;;27.00;;
76123;SDS011;65173;48.066;20.976;2022-12-29T14:07:37;50.55;;;28.38;;
76123;SDS011;65173;48.066;20.976;2022-12-29T14:10:50;48.65;;;28.58;;
76123;SDS011;65173;48.066;20.976;2022-12-29T14:13:57;45.95;;;26.08;;
76123;SDS011;65173;48.066;20.976;2022-12-29T14:17:11;59.20;;;31.92;;
76123;SDS011;65173;48.066;20.976;2022-12-29T14:20:20;50.03;;;26.70;;
76123;SDS011;65173;48.066;20.976;2022-12-29T14:26:36;55.95;;;29.48;;
76123;SDS011;65173;48.066;20.976;2022-12-29T14:32:42;61.78;;;28.15;;
76123;SDS011;65173;48.066;20.976;2022-12-29T14:42:43;69.35;;;32.85;;
76123;SDS011;65173;48.066;20.976;2022-12-29T14:46:00;81.15;;;38.97;;
76123;SDS011;65173;48.066;20.976;2022-12-29T14:49:04;49.00;;;25.85;;
76123;SDS011;65173;48.066;20.976;2022-12-29T14:52:12;63.23;;;28.27;;
76123;SDS011;65173;48.066;20.976;2022-12-29T15:01:46;85.03;;;38.20;;
76123;SDS011;65173;48.066;20.976;2022-12-29T15:04:54;59.63;;;31.00;;
76123;SDS011;65173;48.066;20.976;2022-12-29T15:08:02;71.10;;;32.40;;
76123;SDS011;65173;48.066;20.976;2022-12-29T15:11:10;73.18;;;32.33;;
76123;SDS011;65173;48.066;20.976;2022-12-29T15:14:35;70.20;;;28.80;;
76123;SDS011;65173;48.066;20.976;2022-12-29T15:17:39;61.75;;;29.08;;
76123;SDS011;65173;48.066;20.976;2022-12-29T15:20:42;52.38;;;27.10;;
76123;SDS011;65173;48.066;20.976;2022-12-29T15:23:45;51.93;;;25.83;;
76123;SDS011;65173;48.066;20.976;2022-12-29T15:26:51;69.95;;;33.35;;
76123;SDS011;65173;48.066;20.976;2022-12-29T15:29:57;72.65;;;39.42;;
76123;SDS011;65173;48.066;20.976;2022-12-29T15:33:15;51.33;;;28.87;;
76123;SDS011;65173;48.066;20.976;2022-12-29T15:36:22;46.75;;;25.15;;
76123;SDS011;65173;48.066;20.976;2022-12-29T15:39:28;49.25;;;24.10;;
76123;SDS011;65173;48.066;20.976;2022-12-29T15:46:12;70.82;;;31.50;;
76123;SDS011;65173;48.066;20.976;2022-12-29T15:49:16;60.97;;;30.15;;
76123;SDS011;65173;48.066;20.976;2022-12-29T15:52:19;68.65;;;31.98;;
76123;SDS011;65173;48.066;20.976;2022-12-29T15:55:36;68.67;;;34.70;;
76123;SDS011;65173;48.066;20.976;2022-12-29T15:58:41;72.47;;;37.22;;
76123;SDS011;65173;48.066;20.976;2022-12-29T16:01:46;67.47;;;33.85;;
76123;SDS011;65173;48.066;20.976;2022-12-29T16:04:49;83.60;;;35.90;;
76123;SDS011;65173;48.066;20.976;2022-12-29T16:08:32;115.55;;;48.63;;
76123;SDS011;65173;48.066;20.976;2022-12-29T16:11:40;99.35;;;45.95;;
76123;SDS011;65173;48.066;20.976;2022-12-29T16:14:47;79.38;;;39.00;;
76123;SDS011;65173;48.066;20.976;2022-12-29T16:17:54;67.18;;;35.05;;
76123;SDS011;65173;48.066;20.976;2022-12-29T16:20:57;73.85;;;35.17;;
76123;SDS011;65173;48.066;20.976;2022-12-29T16:24:01;71.70;;;34.10;;
76123;SDS011;65173;48.066;20.976;2022-12-29T16:27:10;64.03;;;31.73;;
76123;SDS011;65173;48.066;20.976;2022-12-29T16:30:23;63.67;;;31.00;;
76123;SDS011;65173;48.066;20.976;2022-12-29T16:37:04;61.83;;;31.87;;
76123;SDS011;65173;48.066;20.976;2022-12-29T16:40:25;63.50;;;31.55;;
76123;SDS011;65173;48.066;20.976;2022-12-29T16:43:33;60.58;;;30.90;;
76123;SDS011;65173;48.066;20.976;2022-12-29T16:50:16;57.53;;;29.45;;
76123;SDS011;65173;48.066;20.976;2022-12-29T16:53:31;63.83;;;33.67;;
76123;SDS011;65173;48.066;20.976;2022-12-29T16:56:45;87.43;;;45.05;;
76123;SDS011;65173;48.066;20.976;2022-12-29T16:59:47;93.97;;;50.50;;
76123;SDS011;65173;48.066;20.976;2022-12-29T17:02:56;99.88;;;52.30;;
76123;SDS011;65173;48.066;20.976;2022-12-29T17:06:02;98.65;;;51.40;;
76123;SDS011;65173;48.066;20.976;2022-12-29T17:12:25;90.30;;;46.08;;
76123;SDS011;65173;48.066;20.976;2022-12-29T17:15:30;96.93;;;48.28;;
76123;SDS011;65173;48.066;20.976;2022-12-29T17:18:36;91.97;;;47.25;;
76123;SDS011;65173;48.066;20.976;2022-12-29T17:21:40;99.85;;;47.95;;
76123;SDS011;65173;48.066;20.976;2022-12-29T17:24:43;104.82;;;51.90;;
76123;SDS011;65173;48.066;20.976;2022-12-29T17:27:46;102.88;;;52.92;;
76123;SDS011;65173;48.066;20.976;2022-12-29T17:30:52;100.90;;;52.70;;
76123;SDS011;65173;48.066;20.976;2022-12-29T17:33:56;93.95;;;51.80;;
76123;SDS011;65173;48.066;20.976;2022-12-29T17:37:00;94.07;;;49.58;;
76123;SDS011;65173;48.066;20.976;2022-12-29T17:40:03;89.47;;;45.07;;
76123;SDS011;65173;48.066;20.976;2022-12-29T17:43:08;95.45;;;46.45;;
76123;SDS011;65173;48.066;20.976;2022-12-29T17:46:16;105.75;;;53.03;;
76123;SDS011;65173;48.066;20.976;2022-12-29T17:49:19;102.25;;;52.35;;
76123;SDS011;65173;48.066;20.976;2022-12-29T17:52:21;113.18;;;59.22;;
76123;SDS011;65173;48.066;20.976;2022-12-29T17:55:24;119.47;;;58.72;;
76123;SDS011;65173;48.066;20.976;2022-12-29T17:58:35;102.50;;;53.58;;
76123;SDS011;65173;48.066;20.976;2022-12-29T18:01:39;121.97;;;59.60;;
76123;SDS011;65173;48.066;20.976;2022-12-29T18:04:46;137.68;;;62.45;;
76123;SDS011;65173;48.066;20.976;2022-12-29T18:07:53;125.88;;;63.25;;
76123;SDS011;65173;48.066;20.976;2022-12-29T18:10:56;136.13;;;60.90;;
76123;SDS011;65173;48.066;20.976;2022-12-29T18:13:59;105.68;;;50.70;;
76123;SDS011;65173;48.066;20.976;2022-12-29T18:17:08;130.15;;;59.50;;
76123;SDS011;65173;48.066;20.976;2022-12-29T18:20:14;149.40;;;66.85;;
76123;SDS011;65173;48.066;20.976;2022-12-29T18:23:21;127.80;;;59.00;;
76123;SDS011;65173;48.066;20.976;2022-12-29T18:26:26;112.10;;;55.47;;
76123;SDS011;65173;48.066;20.976;2022-12-29T18:29:33;92.47;;;47.63;;
76123;SDS011;65173;48.066;20.976;2022-12-29T18:32:36;86.37;;;44.37;;
76123;SDS011;65173;48.066;20.976;2022-12-29T18:35:39;77.38;;;41.75;;
76123;SDS011;65173;48.066;20.976;2022-12-29T18:38:46;76.25;;;40.33;;
76123;SDS011;65173;48.066;20.976;2022-12-29T18:41:48;69.30;;;38.43;;
76123;SDS011;65173;48.066;20.976;2022-12-29T18:44:51;65.38;;;33.75;;
76123;SDS011;65173;48.066;20.976;2022-12-29T18:47:53;59.05;;;30.85;;
76123;SDS011;65173;48.066;20.976;2022-12-29T18:50:56;55.05;;;27.98;;
76123;SDS011;65173;48.066;20.976;2022-12-29T18:54:01;54.63;;;26.55;;
76123;SDS011;65173;48.066;20.976;2022-12-29T18:57:04;56.20;;;27.77;;
76123;SDS011;65173;48.066;20.976;2022-12-29T19:00:07;54.15;;;27.63;;
76123;SDS011;65173;48.066;20.976;2022-12-29T19:03:14;59.87;;;30.60;;
76123;SDS011;65173;48.066;20.976;2022-12-29T19:06:18;63.85;;;32.67;;
76123;SDS011;65173;48.066;20.976;2022-12-29T19:09:22;63.80;;;32.92;;
76123;SDS011;65173;48.066;20.976;2022-12-29T19:12:27;77.30;;;42.10;;
76123;SDS011;65173;48.066;20.976;2022-12-29T19:15:31;60.90;;;32.28;;
76123;SDS011;65173;48.066;20.976;2022-12-29T19:18:34;54.45;;;29.00;;
76123;SDS011;65173;48.066;20.976;2022-12-29T19:21:48;58.00;;;28.13;;
76123;SDS011;65173;48.066;20.976;2022-12-29T19:24:50;51.35;;;27.48;;
76123;SDS011;65173;48.066;20.976;2022-12-29T19:28:01;52.30;;;27.77;;
76123;SDS011;65173;48.066;20.976;2022-12-29T19:31:04;68.88;;;32.13;;
76123;SDS011;65173;48.066;20.976;2022-12-29T19:34:06;66.83;;;31.93;;
76123;SDS011;65173;48.066;20.976;2022-12-29T19:37:09;56.53;;;28.05;;
76123;SDS011;65173;48.066;20.976;2022-12-29T19:40:13;59.53;;;30.77;;
76123;SDS011;65173;48.066;20.976;2022-12-29T19:43:17;55.47;;;28.17;;
76123;SDS011;65173;48.066;20.976;2022-12-29T19:46:21;55.15;;;26.75;;
76123;SDS011;65173;48.066;20.976;2022-12-29T19:49:24;53.35;;;27.63;;
76123;SDS011;65173;48.066;20.976;2022-12-29T19:52:27;54.38;;;26.88;;
76123;SDS011;65173;48.066;20.976;2022-12-29T19:55:30;58.15;;;28.05;;
76123;SDS011;65173;48.066;20.976;2022-12-29T19:58:35;63.50;;;32.83;;
76123;SDS011;65173;48.066;20.976;2022-12-29T20:01:44;60.15;;;31.58;;
76123;SDS011;65173;48.066;20.976;2022-12-29T20:04:47;59.97;;;29.00;;
76123;SDS011;65173;48.066;20.976;2022-12-29T20:07:50;54.80;;;29.02;;
76123;SDS011;65173;48.066;20.976;2022-12-29T20:10:57;55.90;;;28.05;;
76123;SDS011;65173;48.066;20.976;2022-12-29T20:14:00;52.63;;;27.73;;
76123;SDS011;65173;48.066;20.976;2022-12-29T20:17:03;58.90;;;30.50;;